Time;durP1;ratioP1;P1;durP2;ratioP2;P2;SDS_P1;SDS_P2;PMS_P1;PMS_P2;Temp;Humidity;BMP_temperature;BMP_pressure;BME280_temperature;BME280_humidity;BME280_pressure;Samples;Min_cycle;Max_cycle;Signal;HPM_P1;HPM_P2
2022/04/19 00:00:39;;;;;;;12.32;7.68;;;12.00;92.60;;;;;;5030527;28;20092;-48
2022/04/19 00:03:05;;;;;;;11.38;7.95;;;11.90;94.00;;;;;;5031198;28;20038;-47
2022/04/19 00:05:32;;;;;;;12.63;7.85;;;11.90;94.10;;;;;;5032596;28;20033;-47
2022/04/19 00:07:59;;;;;;;15.45;7.55;;;11.90;94.90;;;;;;5034091;28;20037;-48
2022/04/19 00:10:28;;;;;;;11.93;7.60;;;11.90;95.00;;;;;;5033871;28;20037;-48
2022/04/19 00:12:55;;;;;;;12.63;7.70;;;11.80;95.20;;;;;;5034169;28;20457;-43
2022/04/19 00:15:21;;;;;;;12.15;7.88;;;11.80;95.80;;;;;;5031549;28;20045;-46
2022/04/19 00:17:48;;;;;;;12.30;7.47;;;11.80;96.00;;;;;;5034274;28;20045;-47
2022/04/19 00:20:14;;;;;;;10.88;7.20;;;11.80;95.50;;;;;;5033300;28;20443;-46
2022/04/19 00:22:40;;;;;;;13.48;8.15;;;11.80;95.60;;;;;;5033544;28;20104;-44
2022/04/19 00:25:07;;;;;;;13.48;8.15;;;11.80;95.40;;;;;;5033645;28;20076;-43
2022/04/19 00:27:34;;;;;;;12.15;7.97;;;11.70;95.70;;;;;;5033629;28;20041;-42
2022/04/19 00:30:00;;;;;;;11.27;7.82;;;11.60;95.90;;;;;;5033545;28;20037;-50
2022/04/19 00:32:25;;;;;;;11.73;7.88;;;11.40;96.50;;;;;;5032131;28;20061;-42
2022/04/19 00:34:51;;;;;;;11.88;7.60;;;11.40;96.90;;;;;;5033440;28;20044;-45
2022/04/19 00:37:18;;;;;;;12.80;7.65;;;11.30;96.90;;;;;;5033591;28;20037;-47
2022/04/19 00:39:44;;;;;;;12.63;7.90;;;11.20;97.40;;;;;;5033403;28;20057;-46
2022/04/19 00:42:10;;;;;;;12.65;7.78;;;11.30;97.90;;;;;;5033444;28;20041;-48
2022/04/19 00:44:39;;;;;;;12.85;7.90;;;11.20;97.70;;;;;;5033423;28;20473;-44
2022/04/19 00:47:09;;;;;;;11.63;7.40;;;11.30;97.60;;;;;;5033490;28;20405;-45
2022/04/19 00:49:42;;;;;;;12.27;8.05;;;11.10;97.90;;;;;;5033156;28;20524;-46
2022/04/19 00:52:09;;;;;;;13.27;8.20;;;11.20;97.80;;;;;;5033403;28;20050;-42
2022/04/19 00:54:35;;;;;;;12.77;7.72;;;11.10;97.80;;;;;;5032914;28;20053;-45
2022/04/19 00:57:01;;;;;;;13.00;8.45;;;11.20;97.70;;;;;;5033118;28;20037;-44
2022/04/19 00:59:27;;;;;;;13.75;8.50;;;10.90;97.80;;;;;;5032971;28;20037;-50
2022/04/19 01:01:52;;;;;;;15.55;7.93;;;10.90;98.40;;;;;;5031075;28;20049;-48
2022/04/19 01:04:18;;;;;;;12.85;7.97;;;10.80;98.60;;;;;;5032973;28;20072;-47
2022/04/19 01:06:45;;;;;;;13.60;8.40;;;10.70;98.80;;;;;;5032973;28;20077;-43
2022/04/19 01:09:11;;;;;;;13.15;7.90;;;10.80;99.20;;;;;;5031436;28;20037;-43
2022/04/19 01:14:23;;;;;;;13.02;8.48;;;10.80;99.20;;;;;;5032789;28;20052;-46
2022/04/19 01:16:49;;;;;;;13.95;8.63;;;10.60;99.60;;;;;;5033176;28;20603;-47
2022/04/19 01:19:16;;;;;;;14.48;8.43;;;10.60;99.90;;;;;;5032783;28;20041;-41
2022/04/19 01:21:48;;;;;;;17.55;8.88;;;10.50;99.60;;;;;;5032399;28;20045;-50
2022/04/19 01:24:16;;;;;;;12.88;8.38;;;10.50;99.30;;;;;;5032191;28;20037;-49
2022/04/19 01:26:42;;;;;;;14.30;8.32;;;10.40;99.40;;;;;;5032319;28;20052;-46
2022/04/19 01:29:09;;;;;;;15.70;9.18;;;10.40;99.80;;;;;;5032534;28;20468;-45
2022/04/19 01:31:36;;;;;;;13.02;8.38;;;10.40;99.90;;;;;;5032439;28;20618;-44
2022/04/19 01:34:02;;;;;;;13.23;8.82;;;10.40;99.90;;;;;;5032714;28;20041;-42
2022/04/19 01:36:29;;;;;;;14.35;8.98;;;10.30;99.90;;;;;;5032250;28;20473;-51
2022/04/19 01:38:55;;;;;;;13.57;8.30;;;10.20;99.90;;;;;;5032087;28;20048;-44
2022/04/19 01:41:20;;;;;;;15.77;8.55;;;10.20;99.90;;;;;;5032810;28;20042;-48
2022/04/19 01:43:46;;;;;;;14.02;8.85;;;10.10;99.90;;;;;;5032520;28;20067;-53
2022/04/19 01:46:11;;;;;;;12.88;8.77;;;10.10;99.90;;;;;;5030309;28;20040;-45
2022/04/19 01:48:37;;;;;;;14.05;9.02;;;10.10;99.90;;;;;;5031931;28;20041;-43
2022/04/19 01:51:03;;;;;;;14.85;9.13;;;10.10;99.90;;;;;;5031504;28;20044;-50
2022/04/19 01:53:29;;;;;;;14.93;8.23;;;10.00;99.90;;;;;;5031646;28;20073;-44
2022/04/19 01:55:55;;;;;;;13.82;9.00;;;10.00;99.90;;;;;;5031845;28;20036;-49
2022/04/19 01:58:21;;;;;;;15.07;8.98;;;9.90;99.90;;;;;;5031921;28;20073;-46
2022/04/19 02:00:46;;;;;;;12.98;8.63;;;9.90;99.90;;;;;;5031944;28;20088;-47
2022/04/19 02:03:12;;;;;;;15.00;8.73;;;9.80;99.90;;;;;;5031999;28;20041;-44
2022/04/19 02:05:38;;;;;;;13.13;8.55;;;9.80;99.90;;;;;;5031865;28;20121;-51
2022/04/19 02:08:04;;;;;;;14.27;8.13;;;9.90;99.90;;;;;;5031942;28;20124;-46
2022/04/19 02:10:29;;;;;;;14.02;8.85;;;9.70;99.90;;;;;;5031546;28;20047;-44
2022/04/19 02:12:56;;;;;;;12.65;8.98;;;9.60;99.90;;;;;;5031983;28;20037;-44
2022/04/19 02:15:22;;;;;;;14.07;9.23;;;9.60;99.90;;;;;;5031691;28;20439;-48
2022/04/19 02:17:49;;;;;;;14.55;8.88;;;9.60;99.90;;;;;;5031849;28;20037;-45
2022/04/19 02:20:17;;;;;;;15.48;8.82;;;9.40;99.90;;;;;;5031144;28;20103;-48
2022/04/19 02:22:43;;;;;;;14.52;9.88;;;9.50;99.90;;;;;;5031806;28;20049;-44
2022/04/19 02:25:13;;;;;;;16.42;9.32;;;9.40;99.90;;;;;;5031183;28;20037;-51
2022/04/19 02:27:40;;;;;;;13.18;8.90;;;9.40;99.90;;;;;;5031400;28;20037;-49
2022/04/19 02:30:13;;;;;;;13.32;8.88;;;9.40;99.90;;;;;;5030044;28;20402;-47
2022/04/19 02:32:43;;;;;;;15.07;10.13;;;9.40;99.90;;;;;;5030724;28;20057;-48
2022/04/19 02:35:09;;;;;;;15.65;9.60;;;9.30;99.90;;;;;;5031501;28;20429;-47
2022/04/19 02:37:35;;;;;;;15.85;9.23;;;9.30;99.90;;;;;;5030854;28;20151;-45
2022/04/19 02:40:01;;;;;;;14.50;8.88;;;9.30;99.90;;;;;;5030914;28;20094;-46
2022/04/19 02:42:27;;;;;;;15.77;9.60;;;9.40;99.90;;;;;;5031063;28;20037;-47
2022/04/19 02:44:52;;;;;;;16.83;9.50;;;9.40;99.90;;;;;;5031050;28;20065;-47
2022/04/19 02:47:18;;;;;;;16.92;10.43;;;9.40;99.90;;;;;;5031005;28;20037;-47
2022/04/19 02:49:45;;;;;;;15.38;9.40;;;9.30;99.90;;;;;;5030318;28;20048;-45
2022/04/19 02:52:11;;;;;;;13.70;9.20;;;9.30;99.90;;;;;;5029666;28;20081;-45
2022/04/19 02:54:37;;;;;;;15.68;9.77;;;9.30;99.90;;;;;;5031067;28;20037;-44
2022/04/19 02:57:04;;;;;;;16.63;9.73;;;9.30;99.90;;;;;;5031011;28;20056;-45
2022/04/19 02:59:30;;;;;;;14.88;9.10;;;9.30;99.90;;;;;;5013021;28;20052;-44
2022/04/19 03:01:55;;;;;;;13.20;8.98;;;9.20;99.90;;;;;;5030868;28;20037;-46
2022/04/19 03:04:21;;;;;;;15.60;9.98;;;9.10;99.90;;;;;;5031017;28;20044;-45
2022/04/19 03:06:47;;;;;;;14.20;10.10;;;9.20;99.90;;;;;;5031224;28;20042;-45
2022/04/19 03:09:13;;;;;;;14.90;9.52;;;9.10;99.90;;;;;;5030596;28;20504;-45
2022/04/19 03:11:39;;;;;;;15.98;9.85;;;9.10;99.90;;;;;;5029388;28;20130;-45
2022/04/19 03:14:06;;;;;;;17.00;9.32;;;9.10;99.90;;;;;;5030802;28;20396;-47
2022/04/19 03:16:33;;;;;;;16.55;9.63;;;9.00;99.90;;;;;;5028451;28;20100;-47
2022/04/19 03:18:58;;;;;;;16.33;9.77;;;9.00;99.90;;;;;;5030706;28;20089;-51
2022/04/19 03:21:24;;;;;;;13.70;9.20;;;9.00;99.90;;;;;;5028635;28;20442;-48
2022/04/19 03:29:19;;;;;;;15.25;9.65;;;8.90;99.90;;;;;;5030827;28;19976;-46
2022/04/19 03:31:46;;;;;;;16.55;9.60;;;8.90;99.90;;;;;;5030199;28;20065;-48
2022/04/19 03:34:11;;;;;;;18.23;9.73;;;8.90;99.90;;;;;;5030545;28;20096;-48
2022/04/19 03:36:37;;;;;;;14.80;9.95;;;8.90;99.90;;;;;;5031024;28;20076;-49
2022/04/19 03:39:03;;;;;;;15.63;9.63;;;8.90;99.90;;;;;;5034838;28;20102;-49
2022/04/19 03:41:29;;;;;;;15.98;9.80;;;8.80;99.90;;;;;;5033098;28;20037;-48
2022/04/19 03:43:55;;;;;;;13.90;9.07;;;8.70;99.90;;;;;;5034518;28;20033;-42
2022/04/19 03:46:21;;;;;;;14.95;9.43;;;8.70;99.90;;;;;;5033095;28;20049;-42
2022/04/19 03:48:46;;;;;;;17.95;9.68;;;8.80;99.90;;;;;;5034444;28;20032;-48
2022/04/19 03:51:12;;;;;;;15.50;10.07;;;8.70;99.90;;;;;;5034116;28;20119;-43
2022/04/19 03:53:38;;;;;;;15.82;9.93;;;8.70;99.90;;;;;;5034331;28;20451;-47
2022/04/19 03:56:04;;;;;;;15.77;10.32;;;8.70;99.90;;;;;;5034175;28;20112;-43
2022/04/19 03:58:32;;;;;;;14.07;9.45;;;8.60;99.90;;;;;;5033917;28;20045;-46
2022/04/19 04:01:00;;;;;;;15.13;9.85;;;8.60;99.90;;;;;;5031577;28;20041;-46
2022/04/19 04:03:27;;;;;;;15.90;9.98;;;8.60;99.90;;;;;;5032570;28;20037;-46
2022/04/19 04:05:54;;;;;;;14.98;10.40;;;8.60;99.90;;;;;;5034002;28;20037;-44
2022/04/19 04:08:19;;;;;;;13.93;9.45;;;8.50;99.90;;;;;;5033993;28;20037;-45
2022/04/19 04:10:45;;;;;;;15.82;9.48;;;8.40;99.90;;;;;;5033988;28;20123;-47
2022/04/19 04:13:11;;;;;;;15.35;9.35;;;8.40;99.90;;;;;;5033985;28;20396;-45
2022/04/19 04:15:36;;;;;;;16.58;9.63;;;8.40;99.90;;;;;;5033837;28;20103;-41
2022/04/19 04:18:03;;;;;;;15.20;9.18;;;8.30;99.90;;;;;;5033740;28;20048;-44
2022/04/19 04:20:29;;;;;;;14.85;9.20;;;8.40;99.90;;;;;;5033452;28;20060;-47
2022/04/19 04:22:54;;;;;;;14.60;9.45;;;8.30;99.90;;;;;;5033867;28;20037;-48
2022/04/19 04:25:20;;;;;;;16.63;9.63;;;8.20;99.90;;;;;;5033900;28;20111;-46
2022/04/19 04:27:46;;;;;;;14.75;9.07;;;8.20;99.90;;;;;;5033654;28;20044;-44
2022/04/19 04:30:12;;;;;;;15.93;9.35;;;8.20;99.90;;;;;;5033916;28;20045;-46
2022/04/19 04:32:37;;;;;;;14.10;8.98;;;8.20;99.90;;;;;;5033253;28;20053;-47
2022/04/19 04:35:04;;;;;;;18.58;9.85;;;8.30;99.90;;;;;;5033611;28;20057;-48
2022/04/19 04:37:30;;;;;;;13.68;9.05;;;8.20;99.90;;;;;;5031713;28;20045;-50
2022/04/19 04:39:56;;;;;;;15.07;9.57;;;8.20;99.90;;;;;;5033390;28;20412;-46
2022/04/19 04:42:21;;;;;;;14.63;10.15;;;8.40;99.90;;;;;;5031990;28;20129;-45
2022/04/19 04:44:47;;;;;;;17.48;10.50;;;8.30;99.90;;;;;;5032497;28;20390;-47
2022/04/19 04:49:57;;;;;;;16.33;10.05;;;8.30;99.90;;;;;;5030240;28;20429;-48
2022/04/19 04:52:23;;;;;;;16.80;10.27;;;8.30;99.90;;;;;;5033257;28;20087;-49
2022/04/19 04:54:49;;;;;;;16.50;10.55;;;8.20;99.90;;;;;;5029579;28;20050;-51
2022/04/19 04:57:14;;;;;;;16.92;10.38;;;8.30;99.90;;;;;;5033071;28;20045;-40
2022/04/19 04:59:40;;;;;;;16.05;9.68;;;8.30;99.90;;;;;;5033163;28;20049;-44
2022/04/19 05:02:06;;;;;;;15.00;9.82;;;8.30;99.90;;;;;;5033159;28;20037;-45
2022/04/19 05:04:33;;;;;;;15.77;9.80;;;8.30;99.90;;;;;;5032969;28;20030;-48
2022/04/19 05:06:59;;;;;;;16.10;9.70;;;8.30;99.90;;;;;;5032871;28;20384;-49
2022/04/19 05:09:25;;;;;;;17.42;10.10;;;8.30;99.90;;;;;;5032684;28;20037;-49
2022/04/19 05:11:52;;;;;;;15.82;9.85;;;8.30;99.90;;;;;;5031515;28;20041;-48
2022/04/19 05:14:19;;;;;;;19.33;9.93;;;8.40;99.90;;;;;;5033178;28;20045;-45
2022/04/19 05:16:45;;;;;;;19.02;10.25;;;8.40;99.90;;;;;;5032489;28;20041;-46
2022/04/19 05:19:11;;;;;;;20.48;9.98;;;8.40;99.90;;;;;;5032900;28;20091;-48
2022/04/19 05:21:40;;;;;;;18.75;10.70;;;8.40;99.90;;;;;;5032263;28;20049;-45
2022/04/19 05:24:07;;;;;;;16.55;9.63;;;8.50;99.90;;;;;;5031029;28;20116;-49
2022/04/19 05:26:33;;;;;;;18.25;10.82;;;8.40;99.90;;;;;;5032563;28;20033;-46
2022/04/19 05:28:58;;;;;;;18.98;10.95;;;8.50;99.90;;;;;;5031282;28;20045;-47
2022/04/19 05:31:24;;;;;;;16.77;10.43;;;8.50;99.90;;;;;;5029496;28;20057;-48
2022/04/19 05:33:50;;;;;;;17.50;10.65;;;8.50;99.90;;;;;;5031669;28;20080;-44
2022/04/19 05:36:16;;;;;;;18.52;11.10;;;8.60;99.90;;;;;;5031884;28;20038;-43
2022/04/19 05:38:43;;;;;;;16.92;10.95;;;8.60;99.90;;;;;;5032184;28;20096;-43
2022/04/19 05:41:09;;;;;;;19.10;11.43;;;8.70;99.90;;;;;;5032064;28;20087;-47
2022/04/19 05:43:35;;;;;;;20.40;11.52;;;8.70;99.90;;;;;;5031344;28;20049;-49
2022/04/19 05:46:00;;;;;;;16.88;10.93;;;8.80;99.90;;;;;;5031943;28;20041;-52
2022/04/19 05:48:26;;;;;;;18.00;11.52;;;8.80;99.90;;;;;;5031733;28;20476;-48
2022/04/19 05:50:52;;;;;;;21.25;11.23;;;8.80;99.90;;;;;;5031624;28;20502;-44
2022/04/19 05:53:19;;;;;;;17.98;11.63;;;8.90;99.90;;;;;;5031430;28;20205;-48
2022/04/19 05:55:45;;;;;;;20.90;12.32;;;8.90;99.90;;;;;;5031175;28;20045;-43
2022/04/19 05:58:10;;;;;;;20.88;11.40;;;9.00;99.90;;;;;;5031886;28;20041;-53
2022/04/19 06:00:36;;;;;;;19.27;12.00;;;9.10;99.90;;;;;;5030694;28;20060;-44
2022/04/19 06:05:46;;;;;;;;;;;9.20;99.90;;;;;;5032226;28;20107;-48
2022/04/19 06:08:12;;;;;;;22.75;12.27;;;9.30;99.90;;;;;;5030102;28;19925;-51
2022/04/19 06:10:38;;;;;;;22.90;12.35;;;9.30;99.90;;;;;;5031253;28;20037;-45
2022/04/19 06:13:04;;;;;;;22.30;12.10;;;9.40;99.90;;;;;;5031477;28;20493;-49
2022/04/19 06:15:31;;;;;;;19.90;12.23;;;9.40;99.90;;;;;;5030245;28;20045;-46
2022/04/19 06:17:57;;;;;;;24.80;13.35;;;9.50;99.90;;;;;;5031689;28;20041;-46
2022/04/19 06:20:22;;;;;;;24.55;13.40;;;9.50;99.90;;;;;;5028307;28;20490;-48
2022/04/19 06:22:48;;;;;;;19.40;12.88;;;9.60;99.90;;;;;;5029764;28;20473;-46
2022/04/19 06:25:14;;;;;;;23.23;12.88;;;9.60;99.90;;;;;;5030637;28;20083;-47
2022/04/19 06:27:39;;;;;;;20.23;12.48;;;9.60;99.90;;;;;;5028650;28;20045;-51
2022/04/19 06:30:06;;;;;;;22.00;13.18;;;9.60;99.90;;;;;;5030660;28;20087;-44
2022/04/19 06:32:32;;;;;;;22.55;12.98;;;9.60;99.90;;;;;;5030627;28;20053;-47
2022/04/19 06:34:57;;;;;;;21.58;12.35;;;9.70;99.90;;;;;;5028065;28;20442;-45
2022/04/19 06:37:23;;;;;;;22.70;12.38;;;9.80;99.90;;;;;;5030612;28;20029;-46
2022/04/19 06:39:51;;;;;;;22.08;13.15;;;9.80;99.90;;;;;;5030404;28;20081;-51
2022/04/19 06:42:17;;;;;;;19.10;12.00;;;9.90;99.90;;;;;;5030233;28;20041;-52
2022/04/19 06:44:44;;;;;;;24.15;12.93;;;10.00;99.90;;;;;;5030978;28;20083;-47
2022/04/19 06:47:10;;;;;;;22.75;12.52;;;10.00;99.90;;;;;;5029953;28;20045;-52
2022/04/19 06:49:37;;;;;;;21.38;13.13;;;10.00;99.90;;;;;;5031090;28;20033;-44
2022/04/19 06:52:06;;;;;;;25.08;12.18;;;10.10;99.90;;;;;;5029767;28;20393;-48
2022/04/19 06:54:32;;;;;;;19.67;12.05;;;10.20;99.90;;;;;;5029244;28;20041;-50
2022/04/19 06:56:57;;;;;;;19.30;11.48;;;10.30;99.90;;;;;;5029743;28;20128;-50
2022/04/19 06:59:24;;;;;;;20.02;12.15;;;10.40;99.90;;;;;;5030317;28;20125;-48
2022/04/19 07:01:50;;;;;;;19.65;11.75;;;10.50;99.90;;;;;;5027062;28;20053;-51
2022/04/19 07:04:16;;;;;;;18.67;11.43;;;10.60;99.90;;;;;;5023877;28;20436;-47
2022/04/19 07:06:41;;;;;;;21.50;11.98;;;10.70;99.90;;;;;;5017943;28;20388;-45
2022/04/19 07:09:07;;;;;;;18.30;10.95;;;10.80;99.90;;;;;;5020105;28;20033;-47
2022/04/19 07:11:34;;;;;;;20.00;11.40;;;11.10;99.90;;;;;;5019577;28;20052;-51
2022/04/19 07:13:59;;;;;;;19.83;11.63;;;11.00;99.90;;;;;;5020753;28;20034;-46
2022/04/19 07:16:25;;;;;;;19.10;11.40;;;11.10;99.90;;;;;;5020224;28;21370;-43
2022/04/19 07:18:51;;;;;;;19.70;10.88;;;11.20;99.90;;;;;;5015959;28;20046;-50
2022/04/19 07:26:45;;;;;;;17.58;10.52;;;11.40;99.90;;;;;;5019479;28;20064;-43
2022/04/19 07:29:12;;;;;;;18.83;10.50;;;11.60;99.90;;;;;;5019723;28;20033;-52
2022/04/19 07:31:49;;;;;;;17.38;10.15;;;11.50;99.90;;;;;;5018940;28;20111;-53
2022/04/19 07:34:16;;;;;;;16.92;9.95;;;11.70;99.90;;;;;;5016727;28;20124;-47
2022/04/19 07:36:42;;;;;;;16.98;9.32;;;11.80;99.90;;;;;;5016508;28;20049;-45
2022/04/19 07:39:10;;;;;;;15.23;9.13;;;11.90;99.90;;;;;;5019845;28;20029;-51
2022/04/19 07:41:37;;;;;;;15.93;8.85;;;12.10;99.90;;;;;;5019903;28;20048;-49
2022/04/19 07:44:04;;;;;;;15.82;8.98;;;12.20;99.90;;;;;;5016465;28;20495;-50
2022/04/19 07:46:30;;;;;;;15.43;8.98;;;12.20;99.90;;;;;;5016512;28;20075;-47
2022/04/19 07:48:56;;;;;;;14.10;8.73;;;12.30;99.90;;;;;;5012799;28;20038;-49
2022/04/19 07:51:22;;;;;;;15.25;9.27;;;12.40;99.90;;;;;;5016274;28;20041;-49
2022/04/19 07:53:48;;;;;;;14.50;8.55;;;12.50;99.90;;;;;;5019508;28;20056;-44
2022/04/19 07:56:14;;;;;;;15.30;9.02;;;12.70;99.90;;;;;;5021501;28;20084;-46
2022/04/19 07:58:42;;;;;;;13.95;8.10;;;12.80;99.90;;;;;;5015537;28;20033;-50
2022/04/19 08:01:09;;;;;;;14.55;8.77;;;12.90;99.90;;;;;;5021564;28;20042;-47
2022/04/19 08:03:35;;;;;;;14.23;8.10;;;12.90;99.90;;;;;;5021053;28;20040;-51
2022/04/19 08:06:01;;;;;;;13.60;7.75;;;13.10;99.90;;;;;;5022546;28;20029;-49
2022/04/19 08:08:26;;;;;;;14.13;7.43;;;13.20;99.90;;;;;;5021090;28;20095;-46
2022/04/19 08:10:52;;;;;;;11.90;7.47;;;13.30;99.90;;;;;;5020350;28;20091;-51
2022/04/19 08:13:18;;;;;;;13.30;7.28;;;13.40;99.90;;;;;;5021143;28;20040;-48
2022/04/19 08:15:44;;;;;;;12.15;7.10;;;13.50;99.90;;;;;;5022331;28;20045;-49
2022/04/19 08:18:13;;;;;;;12.20;6.90;;;13.70;99.90;;;;;;5021688;28;20484;-48
2022/04/19 08:20:40;;;;;;;13.27;7.22;;;13.80;98.80;;;;;;5020643;28;20037;-48
2022/04/19 08:23:07;;;;;;;12.45;6.70;;;13.80;98.40;;;;;;5021356;28;20382;-52
2022/04/19 08:25:37;;;;;;;15.23;7.75;;;13.80;99.10;;;;;;5025731;28;20183;-49
2022/04/19 08:28:03;;;;;;;12.27;7.15;;;13.80;99.10;;;;;;5024333;28;20494;-47
2022/04/19 08:30:30;;;;;;;14.80;7.57;;;14.10;99.80;;;;;;5024420;28;20166;-49
2022/04/19 08:32:56;;;;;;;16.77;7.85;;;14.00;99.90;;;;;;5022838;28;20111;-49
2022/04/19 08:35:21;;;;;;;12.13;7.00;;;14.30;98.20;;;;;;5024119;28;20493;-53
2022/04/19 08:37:47;;;;;;;14.98;7.80;;;14.40;98.60;;;;;;5024107;28;20100;-52
2022/04/19 08:40:14;;;;;;;15.60;8.27;;;14.50;99.00;;;;;;5024366;28;20150;-49
2022/04/19 08:42:40;;;;;;;13.50;6.82;;;14.60;97.00;;;;;;5021626;28;20131;-52
2022/04/19 08:45:08;;;;;;;13.60;7.28;;;14.70;96.30;;;;;;5015297;28;20146;-48
2022/04/19 08:47:38;;;;;;;16.08;7.30;;;14.70;96.30;;;;;;5019760;28;20444;-49
2022/04/19 08:50:07;;;;;;;12.05;7.18;;;14.80;96.30;;;;;;5020974;28;20038;-48
2022/04/19 08:52:34;;;;;;;11.88;6.45;;;14.80;96.30;;;;;;5024103;28;20040;-46
2022/04/19 08:57:45;;;;;;;11.15;6.43;;;14.90;93.90;;;;;;5023653;28;20072;-48
2022/04/19 09:00:11;;;;;;;12.07;6.72;;;14.90;95.10;;;;;;5020330;28;20045;-50
2022/04/19 09:02:37;;;;;;;11.10;6.20;;;15.10;94.10;;;;;;5021800;28;20060;-44
2022/04/19 09:05:16;;;;;;;12.90;6.25;;;15.10;94.80;;;;;;5022838;28;20034;-49
2022/04/19 09:07:43;;;;;;;12.73;6.68;;;15.40;95.10;;;;;;5023511;28;20039;-49
2022/04/19 09:10:14;;;;;;;12.68;6.22;;;15.30;93.50;;;;;;5023813;28;20037;-49
2022/04/19 09:13:17;;;;;;;14.10;6.38;;;15.50;94.00;;;;;;5023104;28;20041;-46
2022/04/19 09:15:45;;;;;;;12.30;6.43;;;15.70;93.10;;;;;;5023530;28;20047;-44
2022/04/19 09:18:30;;;;;;;10.00;5.30;;;15.80;93.30;;;;;;5022694;28;20068;-46
2022/04/19 09:20:57;;;;;;;9.75;5.15;;;15.90;92.70;;;;;;5024031;28;20128;-48
2022/04/19 09:23:25;;;;;;;9.05;4.88;;;16.00;92.40;;;;;;5023326;28;20443;-46
2022/04/19 09:25:56;;;;;;;10.05;5.43;;;16.00;91.30;;;;;;5021686;28;20065;-42
2022/04/19 09:28:22;;;;;;;10.75;5.05;;;16.10;92.10;;;;;;5022507;28;20390;-46
2022/04/19 09:30:56;;;;;;;10.75;5.20;;;16.20;92.50;;;;;;5022079;28;20037;-45
2022/04/19 09:33:24;;;;;;;10.27;4.43;;;16.40;92.50;;;;;;5022101;28;20149;-49
2022/04/19 09:35:57;;;;;;;10.27;4.90;;;16.50;90.80;;;;;;5022533;28;20044;-49
2022/04/19 09:38:47;;;;;;;9.43;4.38;;;16.30;90.40;;;;;;5020633;28;20064;-42
2022/04/19 09:41:32;;;;;;;12.13;4.93;;;16.60;90.60;;;;;;5019868;28;20041;-48
2022/04/19 09:44:08;;;;;;;8.32;4.57;;;16.70;91.90;;;;;;5023943;28;20400;-48
2022/04/19 09:46:36;;;;;;;11.15;4.38;;;16.80;91.00;;;;;;5023730;28;20034;-49
2022/04/19 09:49:02;;;;;;;9.23;4.40;;;16.80;90.70;;;;;;5023103;28;20554;-48
2022/04/19 09:51:33;;;;;;;7.78;4.10;;;16.80;91.40;;;;;;5022452;28;20034;-51
2022/04/19 09:53:59;;;;;;;8.77;4.90;;;17.10;90.70;;;;;;5023536;28;20481;-50
2022/04/19 09:56:36;;;;;;;9.63;4.43;;;16.80;89.20;;;;;;5023970;28;20040;-50
2022/04/19 09:59:03;;;;;;;8.38;4.40;;;17.00;90.70;;;;;;5023079;28;20067;-50
2022/04/19 10:09:37;;;;;;;8.98;4.75;;;17.30;90.20;;;;;;5023301;28;20540;-47
2022/04/19 10:12:04;;;;;;;8.52;4.57;;;17.20;90.00;;;;;;5023384;28;20553;-50
2022/04/19 10:14:31;;;;;;;12.13;4.57;;;17.30;90.20;;;;;;5022932;28;20121;-48
2022/04/19 10:17:03;;;;;;;7.00;3.97;;;17.10;86.80;;;;;;5021861;28;20033;-54
2022/04/19 10:19:29;;;;;;;6.78;3.78;;;17.10;88.70;;;;;;5021775;28;20103;-47
2022/04/19 10:21:58;;;;;;;5.53;3.05;;;16.90;84.80;;;;;;5022845;28;20037;-50
2022/04/19 10:24:27;;;;;;;8.43;3.35;;;17.30;85.80;;;;;;5022323;28;20041;-51
2022/04/19 10:26:52;;;;;;;4.20;1.80;;;17.50;88.00;;;;;;5020963;28;20033;-51
2022/04/19 10:29:24;;;;;;;6.70;1.65;;;17.50;78.10;;;;;;5022595;28;20044;-52
2022/04/19 10:32:01;;;;;;;5.47;2.50;;;17.50;78.70;;;;;;5022359;28;20053;-46
2022/04/19 10:34:33;;;;;;;6.20;2.78;;;17.20;80.90;;;;;;5022915;28;20045;-47
2022/04/19 10:37:15;;;;;;;5.03;2.78;;;17.40;83.20;;;;;;5022808;28;20517;-53
2022/04/19 10:39:51;;;;;;;8.20;3.50;;;17.70;82.60;;;;;;5021740;28;20489;-50
2022/04/19 10:42:33;;;;;;;5.78;3.03;;;17.90;82.80;;;;;;5021722;28;20052;-54
2022/04/19 10:45:14;;;;;;;6.53;2.65;;;17.90;83.70;;;;;;5023182;28;20042;-46
2022/04/19 10:47:52;;;;;;;7.80;2.80;;;17.90;80.70;;;;;;5020142;28;20038;-53
2022/04/19 10:50:39;;;;;;;5.75;2.28;;;18.00;80.00;;;;;;5021122;28;20060;-49
2022/04/19 10:53:12;;;;;;;4.75;1.85;;;17.80;78.20;;;;;;5022288;28;20034;-48
2022/04/19 10:55:39;;;;;;;5.85;2.00;;;17.70;78.50;;;;;;5022570;28;20038;-48
2022/04/19 10:58:17;;;;;;;4.57;1.80;;;17.80;75.50;;;;;;5021843;28;20361;-52
2022/04/19 11:00:53;;;;;;;3.90;1.60;;;18.00;76.60;;;;;;5022328;28;20037;-48
2022/04/19 11:03:37;;;;;;;4.03;1.70;;;18.20;73.40;;;;;;5022722;28;20037;-50
2022/04/19 11:06:05;;;;;;;5.38;1.80;;;18.10;73.00;;;;;;5022146;28;20045;-46
2022/04/19 11:08:36;;;;;;;7.68;2.05;;;18.40;70.60;;;;;;5020854;28;20038;-48
2022/04/19 11:11:02;;;;;;;3.80;1.90;;;18.60;73.00;;;;;;5021113;28;20052;-48
2022/04/19 11:13:31;;;;;;;7.50;2.20;;;18.40;67.50;;;;;;5022060;28;20409;-47
2022/04/19 11:15:58;;;;;;;5.32;2.20;;;18.40;69.20;;;;;;5022691;28;20377;-46
2022/04/19 11:18:25;;;;;;;7.30;2.42;;;18.50;68.30;;;;;;5022297;28;20446;-54
2022/04/19 11:20:53;;;;;;;5.57;1.92;;;18.60;67.30;;;;;;5021117;28;20057;-47
2022/04/19 11:23:30;;;;;;;5.18;1.73;;;18.90;62.60;;;;;;5021848;28;20029;-46
2022/04/19 11:25:56;;;;;;;4.70;2.13;;;18.70;60.90;;;;;;5026886;28;20041;-49
2022/04/19 11:28:23;;;;;;;5.72;2.30;;;18.90;63.00;;;;;;5019577;28;20045;-50
2022/04/19 11:30:55;;;;;;;4.53;2.05;;;19.20;61.10;;;;;;5025536;28;20047;-49
2022/04/19 11:33:26;;;;;;;5.88;2.30;;;19.20;61.80;;;;;;5026961;28;20392;-49
2022/04/19 11:36:02;;;;;;;4.78;1.98;;;19.20;59.60;;;;;;5028754;28;20038;-46
2022/04/19 11:38:34;;;;;;;4.63;2.13;;;19.10;60.40;;;;;;5030205;28;20124;-46
2022/04/19 11:46:44;;;;;;;5.15;1.90;;;19.10;60.20;;;;;;5029113;28;20111;-51
2022/04/19 11:49:16;;;;;;;4.03;1.65;;;19.60;57.90;;;;;;5030648;28;20544;-54
2022/04/19 11:51:52;;;;;;;5.57;1.38;;;19.70;57.90;;;;;;5030340;28;20532;-52
2022/04/19 11:54:28;;;;;;;3.20;1.30;;;19.50;51.90;;;;;;5030357;28;20229;-52
2022/04/19 11:56:59;;;;;;;7.57;1.73;;;19.60;54.10;;;;;;5030300;28;20042;-52
2022/04/19 11:59:30;;;;;;;3.55;1.77;;;19.50;54.10;;;;;;5033472;28;20033;-50
2022/04/19 12:01:56;;;;;;;5.45;1.83;;;19.70;56.10;;;;;;5034085;28;20044;-51
2022/04/19 12:04:23;;;;;;;3.63;1.52;;;19.50;56.70;;;;;;5034446;28;20373;-52
2022/04/19 12:06:52;;;;;;;3.75;1.70;;;19.80;58.80;;;;;;5034148;28;20043;-52
2022/04/19 12:09:19;;;;;;;4.78;2.00;;;20.10;58.00;;;;;;5034272;28;20038;-49
2022/04/19 12:11:47;;;;;;;3.65;1.58;;;20.20;56.60;;;;;;5034367;28;20064;-47
2022/04/19 12:14:30;;;;;;;4.57;1.75;;;20.20;55.70;;;;;;5034388;28;20041;-48
2022/04/19 12:17:03;;;;;;;3.15;1.67;;;20.30;55.20;;;;;;5033939;28;20041;-54
2022/04/19 12:19:39;;;;;;;5.07;1.88;;;20.00;54.70;;;;;;5034192;28;20044;-46
2022/04/19 12:22:15;;;;;;;3.55;1.67;;;20.10;54.80;;;;;;5033510;28;20133;-50
2022/04/19 12:24:45;;;;;;;6.70;1.45;;;20.40;57.00;;;;;;5034000;28;20030;-48
2022/04/19 12:27:11;;;;;;;4.07;1.30;;;20.30;57.30;;;;;;5033844;28;20068;-52
2022/04/19 12:29:53;;;;;;;3.80;1.30;;;20.50;56.10;;;;;;5033502;28;20041;-51
2022/04/19 12:32:19;;;;;;;7.00;1.30;;;20.50;55.00;;;;;;5033668;28;20128;-49
2022/04/19 12:34:45;;;;;;;2.35;1.02;;;20.70;55.60;;;;;;5033903;28;20128;-50
2022/04/19 12:37:16;;;;;;;5.55;1.60;;;20.80;56.00;;;;;;5033255;28;20095;-51
2022/04/19 12:40:02;;;;;;;5.22;1.60;;;20.90;55.80;;;;;;5033518;28;20041;-49
2022/04/19 12:42:28;;;;;;;4.00;1.50;;;20.70;54.70;;;;;;5033042;28;20048;-49
2022/04/19 12:45:09;;;;;;;3.45;1.40;;;20.80;55.80;;;;;;5033381;28;20037;-47
2022/04/19 12:47:37;;;;;;;3.08;1.35;;;20.80;54.40;;;;;;5033644;28;20033;-48
2022/04/19 12:50:14;;;;;;;2.35;1.00;;;20.90;56.90;;;;;;5033478;28;20122;-49
2022/04/19 12:52:41;;;;;;;3.63;1.10;;;21.10;53.80;;;;;;5032781;28;20042;-51
2022/04/19 12:55:10;;;;;;;4.20;1.35;;;21.00;54.40;;;;;;5033058;28;20041;-49
2022/04/19 12:57:39;;;;;;;5.13;1.52;;;21.10;54.00;;;;;;5031755;28;20044;-49
2022/04/19 13:00:09;;;;;;;5.22;1.20;;;20.80;53.10;;;;;;5030895;28;20052;-50
2022/04/19 13:02:35;;;;;;;3.92;1.30;;;20.80;53.30;;;;;;5031555;28;20080;-53
2022/04/19 13:05:01;;;;;;;3.63;1.20;;;21.00;55.30;;;;;;5030694;28;20072;-46
2022/04/19 13:13:01;;;;;;;6.85;1.30;;;21.60;54.00;;;;;;5031045;28;20061;-49
2022/04/19 13:15:26;;;;;;;2.50;1.25;;;21.70;53.70;;;;;;5032111;28;20049;-46
2022/04/19 13:17:52;;;;;;;3.00;1.08;;;21.70;53.80;;;;;;5032997;28;20040;-48
2022/04/19 13:20:18;;;;;;;6.32;1.38;;;21.90;52.70;;;;;;5032620;28;20033;-51
2022/04/19 13:22:43;;;;;;;2.88;1.20;;;22.10;52.90;;;;;;5031965;28;20116;-48
2022/04/19 13:25:09;;;;;;;5.07;1.30;;;22.30;53.70;;;;;;5031905;28;20044;-45